createdAt,value
2023-05-04T00:00:22.358Z,2.45
2023-05-04T00:04:36.577Z,2.47
2023-05-04T00:08:46.877Z,2.17
2023-05-04T00:12:57.456Z,2.30
2023-05-04T00:17:11.890Z,2.20
2023-05-04T00:21:23.995Z,5.22
2023-05-04T00:25:34.493Z,2.53
2023-05-04T00:29:44.300Z,2.63
2023-05-04T00:33:58.139Z,2.17
2023-05-04T00:38:08.402Z,3.33
2023-05-04T00:42:18.891Z,2.53
2023-05-04T00:46:27.005Z,2.60
2023-05-04T00:50:39.273Z,2.88
2023-05-04T00:54:50.427Z,2.88
2023-05-04T00:59:18.262Z,4.97
2023-05-04T01:03:34.681Z,4.88
2023-05-04T01:08:14.322Z,4.57
2023-05-04T01:12:41.608Z,3.05
2023-05-04T01:17:04.740Z,3.33
2023-05-04T01:21:15.364Z,3.97
2023-05-04T01:25:23.903Z,2.53
2023-05-04T01:29:35.405Z,2.50
2023-05-04T01:33:51.349Z,2.88
2023-05-04T01:37:58.511Z,2.45
2023-05-04T01:42:05.768Z,3.67
2023-05-04T01:46:19.411Z,3.13
2023-05-04T01:50:26.571Z,3.97
2023-05-04T01:54:41.201Z,3.35
2023-05-04T01:58:53.902Z,4.20
2023-05-04T02:03:02.908Z,5.28
2023-05-04T02:07:25.000Z,4.10
2023-05-04T02:11:34.891Z,3.78
2023-05-04T02:15:49.697Z,5.10
2023-05-04T02:19:59.514Z,3.17
2023-05-04T02:24:13.557Z,6.63
2023-05-04T02:28:21.874Z,4.80
2023-05-04T02:32:31.205Z,4.28
2023-05-04T02:36:37.811Z,7.40
2023-05-04T02:40:55.030Z,7.93
2023-05-04T02:45:08.302Z,6.47
2023-05-04T02:49:17.453Z,4.95
2023-05-04T02:53:35.774Z,7.20
2023-05-04T02:57:47.366Z,5.03
2023-05-04T03:01:58.184Z,4.30
2023-05-04T03:06:11.573Z,4.25
2023-05-04T03:10:19.673Z,7.15
2023-05-04T03:14:31.531Z,3.47
2023-05-04T03:23:20.368Z,6.82
2023-05-04T03:27:28.067Z,5.57
2023-05-04T03:31:43.521Z,5.10
2023-05-04T03:36:03.539Z,5.72
2023-05-04T03:40:15.458Z,7.30
2023-05-04T03:44:29.618Z,6.15
2023-05-04T04:03:33.537Z,5.57
2023-05-04T04:07:54.859Z,7.78
2023-05-04T04:17:30.508Z,7.47
2023-05-04T04:21:36.530Z,5.78
2023-05-04T04:25:49.499Z,8.35
2023-05-04T04:30:11.557Z,7.63
2023-05-04T04:34:26.167Z,6.90
2023-05-04T04:38:35.030Z,8.50
2023-05-04T04:42:47.300Z,7.28
2023-05-04T04:47:00.517Z,6.97
2023-05-04T04:51:16.654Z,7.07
2023-05-04T04:59:46.998Z,7.10
2023-05-04T05:04:11.656Z,6.93
2023-05-04T05:08:50.536Z,5.45
2023-05-04T05:13:02.081Z,4.72
2023-05-04T05:17:06.895Z,5.97
2023-05-04T05:21:09.373Z,5.60
2023-05-04T05:25:12.329Z,6.43
2023-05-04T05:29:14.414Z,7.80
2023-05-04T05:33:17.058Z,6.50
2023-05-04T05:37:19.393Z,7.20
2023-05-04T05:41:22.660Z,6.68
2023-05-04T05:45:24.827Z,19.67
2023-05-04T05:49:26.815Z,7.70
2023-05-04T05:53:28.892Z,9.35
2023-05-04T05:57:31.377Z,5.63
2023-05-04T06:01:33.405Z,6.93
2023-05-04T06:05:35.546Z,7.13
2023-05-04T06:09:37.524Z,4.50
2023-05-04T06:13:39.824Z,3.83
2023-05-04T06:17:41.953Z,4.78
2023-05-04T06:21:43.948Z,5.80
2023-05-04T06:25:45.947Z,5.13
2023-05-04T06:29:47.969Z,4.75
2023-05-04T06:33:50.910Z,4.68
2023-05-04T06:37:53.007Z,4.03
2023-05-04T06:41:55.601Z,3.58
2023-05-04T06:46:01.836Z,5.20
2023-05-04T06:50:12.307Z,2.85
2023-05-04T06:54:14.386Z,1.85
2023-05-04T06:58:17.841Z,3.40
2023-05-04T07:02:20.438Z,4.03
2023-05-04T07:06:26.538Z,2.60
2023-05-04T07:10:29.001Z,2.75
2023-05-04T07:14:31.041Z,2.22
2023-05-04T07:18:33.113Z,2.63
2023-05-04T07:22:35.363Z,3.40
2023-05-04T07:26:37.346Z,2.03
2023-05-04T07:30:39.543Z,2.70
2023-05-04T07:34:45.643Z,2.53
2023-05-04T07:38:48.583Z,1.70
2023-05-04T07:42:50.771Z,2.88
2023-05-04T07:46:52.976Z,1.65
2023-05-04T07:50:55.182Z,1.90
2023-05-04T07:54:57.263Z,1.70
2023-05-04T07:58:59.491Z,2.30
2023-05-04T08:03:01.650Z,2.28
2023-05-04T08:07:03.877Z,1.80
2023-05-04T08:11:19.184Z,3.00
2023-05-04T08:15:22.886Z,3.13
2023-05-04T08:19:24.998Z,1.63
2023-05-04T08:23:27.578Z,1.45
2023-05-04T08:27:29.620Z,2.28
2023-05-04T08:31:31.701Z,2.38
2023-05-04T08:35:33.863Z,2.92
2023-05-04T08:39:35.882Z,1.98
2023-05-04T08:43:38.441Z,2.38
2023-05-04T08:47:43.504Z,2.63
2023-05-04T08:51:46.486Z,7.15
2023-05-04T08:55:51.462Z,3.83
2023-05-04T08:59:55.587Z,4.07
2023-05-04T09:04:01.633Z,2.60
2023-05-04T09:08:04.184Z,1.52
2023-05-04T09:12:06.426Z,3.95
2023-05-04T09:16:08.658Z,3.53
2023-05-04T09:20:11.190Z,3.13
2023-05-04T09:24:13.259Z,3.05
2023-05-04T09:28:17.187Z,4.30
2023-05-04T09:32:19.290Z,2.63
2023-05-04T09:36:22.141Z,1.67
2023-05-04T09:40:35.701Z,1.50
2023-05-04T09:44:37.837Z,1.50
2023-05-04T09:48:58.912Z,2.20
2023-05-04T09:53:01.210Z,2.63
2023-05-04T09:57:15.167Z,3.63
2023-05-04T10:01:18.347Z,1.40
2023-05-04T10:05:22.096Z,2.13
2023-05-04T10:09:25.360Z,1.50
2023-05-04T10:13:28.244Z,1.87
2023-05-04T10:17:50.757Z,2.10
2023-05-04T10:22:36.017Z,1.70
2023-05-04T10:26:48.015Z,4.22
2023-05-04T10:30:58.510Z,2.53
2023-05-04T10:35:08.740Z,2.50
2023-05-04T10:39:21.095Z,1.30
2023-05-04T10:43:26.468Z,1.77
2023-05-04T10:47:37.034Z,3.78
2023-05-04T10:51:49.104Z,2.05
2023-05-04T10:55:51.776Z,2.10
2023-05-04T10:59:58.872Z,1.52
2023-05-04T11:04:01.033Z,1.20
2023-05-04T11:08:14.927Z,1.60
2023-05-04T11:12:17.571Z,2.30
2023-05-04T11:16:24.783Z,1.40
2023-05-04T11:20:27.433Z,3.10
2023-05-04T11:24:46.698Z,2.25
2023-05-04T11:28:48.691Z,1.58
2023-05-04T11:32:50.782Z,3.05
2023-05-04T11:36:54.665Z,1.63
2023-05-04T11:40:56.923Z,2.25
2023-05-04T11:44:59.118Z,1.90
2023-05-04T11:49:01.454Z,2.28
2023-05-04T11:53:06.443Z,2.85
2023-05-04T11:57:08.605Z,2.33
2023-05-04T12:01:10.796Z,1.67
2023-05-04T12:05:14.215Z,1.40
2023-05-04T12:09:16.646Z,2.05
2023-05-04T12:13:19.025Z,1.40
2023-05-04T12:17:21.532Z,2.85
2023-05-04T12:21:23.526Z,1.40
2023-05-04T12:25:25.770Z,3.42
2023-05-04T12:29:27.786Z,1.65
2023-05-04T12:33:30.258Z,1.30
2023-05-04T12:37:32.369Z,1.83
2023-05-04T12:41:34.736Z,1.83
2023-05-04T12:45:38.188Z,2.58
2023-05-04T12:49:40.267Z,1.88
2023-05-04T12:53:43.612Z,1.52
2023-05-04T12:57:45.838Z,3.38
2023-05-04T13:01:47.963Z,1.15
2023-05-04T13:05:50.157Z,1.55
2023-05-04T13:09:52.222Z,1.40
2023-05-04T13:13:54.386Z,4.07
2023-05-04T13:17:56.434Z,1.60
2023-05-04T13:21:58.411Z,3.40
2023-05-04T13:26:00.588Z,1.50
2023-05-04T13:30:04.021Z,1.80
2023-05-04T13:34:08.875Z,1.98
2023-05-04T13:38:10.892Z,2.60
2023-05-04T13:42:13.366Z,1.88
2023-05-04T13:46:15.479Z,2.17
2023-05-04T13:50:18.947Z,1.45
2023-05-04T13:54:22.806Z,2.53
2023-05-04T13:58:24.911Z,2.22
2023-05-04T14:02:27.191Z,3.17
2023-05-04T14:06:29.807Z,1.45
2023-05-04T14:10:32.091Z,2.20
2023-05-04T14:14:34.286Z,2.10
2023-05-04T14:18:36.391Z,2.15
2023-05-04T14:22:41.280Z,1.30
2023-05-04T14:26:43.456Z,4.32
2023-05-04T14:30:45.526Z,4.05
2023-05-04T14:34:47.808Z,7.13
2023-05-04T14:38:49.879Z,1.80
2023-05-04T14:42:52.361Z,2.13
2023-05-04T14:46:54.446Z,2.92
2023-05-04T14:50:57.025Z,3.10
2023-05-04T14:54:59.093Z,1.48
2023-05-04T14:59:01.751Z,1.85
2023-05-04T15:03:04.759Z,3.27
2023-05-04T15:07:07.840Z,1.83
2023-05-04T15:11:09.942Z,1.95
2023-05-04T15:15:12.809Z,3.67
2023-05-04T15:19:14.887Z,1.80
2023-05-04T15:23:17.084Z,1.52
2023-05-04T15:27:19.241Z,2.40
2023-05-04T15:31:21.477Z,5.68
2023-05-04T15:35:23.467Z,2.45
2023-05-04T15:39:26.628Z,3.78
2023-05-04T15:47:32.152Z,4.03
2023-05-04T15:51:34.384Z,1.73
2023-05-04T15:55:36.601Z,1.53
2023-05-04T15:59:39.535Z,3.80
2023-05-04T16:03:43.122Z,3.20
2023-05-04T16:07:45.352Z,2.08
2023-05-04T16:11:47.420Z,1.70
2023-05-04T16:15:53.434Z,1.65
2023-05-04T16:19:55.460Z,4.47
2023-05-04T16:23:57.753Z,2.70
2023-05-04T16:28:00.104Z,1.30
2023-05-04T16:32:03.144Z,2.40
2023-05-04T16:36:06.760Z,2.10
2023-05-04T16:40:10.855Z,3.47
2023-05-04T16:44:13.045Z,1.70
2023-05-04T16:48:15.234Z,2.77
2023-05-04T16:52:17.301Z,1.63
2023-05-04T16:56:19.887Z,1.92
2023-05-04T17:00:21.991Z,1.85
2023-05-04T17:04:25.424Z,1.58
2023-05-04T17:08:27.509Z,2.35
2023-05-04T17:12:30.951Z,2.10
2023-05-04T17:16:33.282Z,1.65
2023-05-04T17:20:35.733Z,5.30
2023-05-04T17:24:37.812Z,2.38
2023-05-04T17:28:39.822Z,5.30
2023-05-04T17:32:41.966Z,2.15
2023-05-04T17:36:44.154Z,1.48
2023-05-04T17:40:46.263Z,1.95
2023-05-04T17:44:48.306Z,2.17
2023-05-04T17:48:52.207Z,2.85
2023-05-04T17:52:55.839Z,2.13
2023-05-04T17:56:58.152Z,2.17
2023-05-04T18:01:00.190Z,3.15
2023-05-04T18:05:03.048Z,2.95
2023-05-04T18:09:05.133Z,2.00
2023-05-04T18:13:07.203Z,3.20
2023-05-04T18:17:09.278Z,3.65
2023-05-04T18:21:11.516Z,1.77
2023-05-04T18:25:15.821Z,3.05
2023-05-04T18:29:19.293Z,2.13
2023-05-04T18:33:21.759Z,2.38
2023-05-04T18:37:24.913Z,3.72
2023-05-04T18:41:27.824Z,2.08
2023-05-04T18:45:30.314Z,3.35
2023-05-04T18:49:32.339Z,2.85
2023-05-04T18:53:34.535Z,3.65
2023-05-04T18:57:36.694Z,2.95
2023-05-04T19:01:39.143Z,2.70
2023-05-04T19:05:41.446Z,3.00
2023-05-04T19:09:45.811Z,3.20
2023-05-04T19:13:48.104Z,5.47
2023-05-04T19:17:50.981Z,2.80
2023-05-04T19:21:53.431Z,3.55
2023-05-04T19:25:55.486Z,5.72
2023-05-04T19:29:57.900Z,4.30
2023-05-04T19:34:00.143Z,4.22
2023-05-04T19:38:02.545Z,5.05
2023-05-04T19:42:04.932Z,5.40
2023-05-04T19:46:06.983Z,3.22
2023-05-04T19:50:11.346Z,5.05
2023-05-04T19:54:14.075Z,9.02
2023-05-04T19:58:16.192Z,3.58
2023-05-04T20:02:19.190Z,4.93
2023-05-04T20:06:21.548Z,5.63
2023-05-04T20:10:23.679Z,6.28
2023-05-04T20:14:25.717Z,4.07
2023-05-04T20:18:28.754Z,4.20
2023-05-04T20:22:32.492Z,3.35
2023-05-04T20:26:34.869Z,3.65
2023-05-04T20:30:37.477Z,5.78
2023-05-04T20:34:40.418Z,5.50
2023-05-04T20:38:43.043Z,4.07
2023-05-04T20:42:45.307Z,3.78
2023-05-04T20:46:47.411Z,5.30
2023-05-04T20:50:51.546Z,4.72
2023-05-04T20:54:55.380Z,3.70
2023-05-04T20:58:57.742Z,5.20
2023-05-04T21:02:59.899Z,6.53
2023-05-04T21:07:02.298Z,3.92
2023-05-04T21:11:04.675Z,4.50
2023-05-04T21:15:07.033Z,6.93
2023-05-04T21:19:09.144Z,4.93
2023-05-04T21:23:11.349Z,4.47
2023-05-04T21:27:14.179Z,4.75
2023-05-04T21:31:16.352Z,5.35
2023-05-04T21:35:21.295Z,6.72
2023-05-04T21:39:23.539Z,5.32
2023-05-04T21:43:25.548Z,5.68
2023-05-04T21:47:27.638Z,4.65
2023-05-04T21:51:30.035Z,4.68
2023-05-04T21:55:32.186Z,6.93
2023-05-04T21:59:34.687Z,8.50
2023-05-04T22:03:37.097Z,5.55
2023-05-04T22:07:39.383Z,6.22
2023-05-04T22:11:41.500Z,6.03
2023-05-04T22:15:49.722Z,6.35
2023-05-04T22:19:53.229Z,6.05
2023-05-04T22:23:55.278Z,6.55
2023-05-04T22:27:57.783Z,7.78
2023-05-04T22:31:59.828Z,5.40
2023-05-04T22:36:02.199Z,7.53
2023-05-04T22:40:05.285Z,5.15
2023-05-04T22:44:07.620Z,7.80
2023-05-04T22:48:10.041Z,5.45
2023-05-04T22:52:12.852Z,5.20
2023-05-04T22:56:14.843Z,4.70
2023-05-04T23:00:17.355Z,8.52
2023-05-04T23:04:23.219Z,7.40
2023-05-04T23:08:28.009Z,6.30
2023-05-04T23:12:30.661Z,6.68
2023-05-04T23:16:33.280Z,6.55
2023-05-04T23:20:35.647Z,4.90
2023-05-04T23:24:37.771Z,5.60
2023-05-04T23:28:40.997Z,5.78
2023-05-04T23:32:43.108Z,5.68
2023-05-04T23:36:45.847Z,6.13
2023-05-04T23:40:47.949Z,5.72
2023-05-04T23:44:50.010Z,8.45
2023-05-04T23:48:52.057Z,6.05
2023-05-04T23:52:54.148Z,5.28
2023-05-04T23:56:56.588Z,6.32
